Nearby METAR Reports

 

KMDQ - Huntsville/Madis, Alabama, USA
Distance from station: S 20mi, 32km
Updated: Fri, 27-Nov-2020 3:15am CST
Mist, Mostly cloudy
Mist, Mostly cloudy
 Wind from calm
Wind: Calm
Temperature: 37°F , 3°C
Dew Point: 36°F , 2°C
Humidity: 93%
Barometer: 30.14 inHg , 1020.7 hPa
Summary: Mist
Clouds: Mostly cloudy
Visibility: 2 1/2 miles , 4 km
Cloud details: Mostly cloudy 100 ft
2020/11/27 09:15 KMDQ 270915Z AUTO 00000KT 2 1/2SM BR BKN001 03/02 A3014 RMK A02 T00260024
KTHA - Tullahoma, Tennessee, USA
Distance from station: NE 24mi, 39km
Updated: Fri, 27-Nov-2020 3:15am CST
Mist, Overcast
Mist, Overcast
 Wind from calm
Wind: Calm
Temperature: 34°F , 1°C
Dew Point: 34°F , 1°C
Humidity: 100%
Barometer: 30.11 inHg , 1019.6 hPa
Summary: Mist
Clouds: Overcast
Visibility: 1 3/4 miles , 2.8 km
Cloud details: Overcast 100 ft
2020/11/27 09:15 KTHA 270915Z AUTO 00000KT 1 3/4SM BR OVC001 01/01 A3011 RMK A01
 
KBGF - Winchester, Tennessee, USA
Distance from station: E 29mi, 46km
Updated: Fri, 27-Nov-2020 3:15am CST
Overcast
Overcast
 Wind from calm
Wind: Calm
Temperature: 37°F , 3°C
Dew Point: 36°F , 2°C
Humidity: 93%
Barometer: 30.12 inHg , 1020 hPa
Clouds: Overcast
Visibility: 10 miles , 16 km
Cloud details: Overcast 6000 ft
2020/11/27 09:15 KBGF 270915Z AUTO 00000KT 10SM OVC060 03/02 A3012 RMK A01
KHUA - Redstone Arsenal, Alabama, USA
Distance from station: S 33mi, 53km
Updated: Fri, 27-Nov-2020 3:18am CST
Mist, Clear
Mist, Clear
 Wind from calm
Wind: Calm
Temperature: 39°F , 4°C
Dew Point: 39°F , 4°C
Humidity: 100%
Barometer: 30.11 inHg , 1019.6 hPa
Summary: Mist
Clouds: Clear
Visibility: 4 miles , 6 km
2020/11/27 09:18 KHUA 270918Z AUTO 00000KT 4SM BR CLR 04/04 A3011 RMK AO2 SLP198
 
KHSV - Huntsville, Alabama, USA
Distance from station: SSW 37mi, 59km
Updated: Fri, 27-Nov-2020 2:53am CST
Clear
Clear
 Wind from E
Wind: E 5 mph , 7 km/h
Temperature: 39°F , 4°C
Wind Chill: 35°F , 2°C
Dew Point: 37°F , 3°C
Humidity: 93%
Barometer: 30.12 inHg , 1020 hPa
Clouds: Clear
Visibility: 10 miles , 16 km
2020/11/27 08:53 KHSV 270853Z AUTO 08004KT 10SM CLR 04/03 A3012 RMK AO2 SLP197 T00440033 53001
KDCU - Decatur, Alabama, USA
Distance from station: SSW 41mi, 66km
Updated: Fri, 27-Nov-2020 3:23am CST
Mist, Mostly cloudy
Mist, Mostly cloudy
 Wind from calm
Wind: Calm
Temperature: 36°F , 2°C
Dew Point: 36°F , 2°C
Humidity: 100%
Barometer: 30.13 inHg , 1020.3 hPa
Summary: Mist
Clouds: Mostly cloudy
Visibility: 2 miles , 3 km
Cloud details: Mostly cloudy 200 ft
2020/11/27 09:23 KDCU 270923Z AUTO 00000KT 2SM BR BKN002 02/02 A3013 RMK AO2 T00220022 $
 
KMRC - Columbia, Tennessee, USA
Distance from station: NW 44mi, 71km
Updated: Fri, 27-Nov-2020 3:15am CST
Fog, Overcast
Fog, Overcast
 Wind from calm
Wind: Calm
Temperature: 34°F , 1°C
Dew Point: 34°F , 1°C
Humidity: 100%
Barometer: 30.11 inHg , 1019.6 hPa
Summary: Fog
Clouds: Overcast
Visibility: 1/2 mile , 0.8 km
Cloud details: Overcast 200 ft
2020/11/27 09:15 KMRC 270915Z AUTO 00000KT 1/2SM FG OVC002 01/01 A3011 RMK A01
K4A6 - Scottsboro, Alabama, USA
Distance from station: SE 46mi, 74km
Updated: Fri, 27-Nov-2020 3:15am CST
Overcast
Overcast
 Wind from calm
Wind: Calm
Temperature: 37°F , 3°C
Dew Point: 37°F , 3°C
Humidity: 100%
Barometer: 30.15 inHg , 1021 hPa
Clouds: Overcast
Visibility: 9 miles , 14 km
Cloud details: Few Clouds 300 ft
Partly cloudy 4500 ft
Overcast 5500 ft
2020/11/27 09:15 K4A6 270915Z AUTO 00000KT 9SM FEW003 SCT045 OVC055 03/03 A3015 RMK AO2
 
K9A4 - Courtland, Alabama, USA
Distance from station: SW 55mi, 89km
Updated: Thu, 22-Aug-2013 2:15pm CDT
NOT Current
Clear
Clear
 Wind from NNE
Wind: NNE 6 mph , 9 km/h
Temperature: 84°F , 29°C
Heat Index: 89°F , 32°C
Dew Point: 72°F , 22°C
Humidity: 66%
Barometer: 30.10 inHg , 1019.3 hPa
Clouds: Clear
Visibility: 10 miles , 16 km
2013/08/22 19:15 K9A4 221915Z AUTO 03005KT 10SM CLR 29/22 A3010 RMK AO2
KMQY - Smyrna, Tennessee, USA
Distance from station: N 60mi, 96km
Updated: Fri, 27-Nov-2020 3:28am CST
Mist, Overcast
Mist, Overcast
 Wind from calm
Wind: Calm
Temperature: 34°F , 1°C
Dew Point: 34°F , 1°C
Humidity: 100%
Barometer: 30.15 inHg , 1021 hPa
Summary: Mist
Clouds: Overcast
Visibility: 3/4 mile , 1.2 km
Cloud details: Overcast 300 ft
2020/11/27 09:28 KMQY 270928Z AUTO 00000KT 3/4SM BR OVC003 01/01 A3015 RMK AO2 PNO $
 
K3A1 - Cullman/Folsom F, Alabama, USA
Distance from station: SSW 63mi, 102km
Updated: Mon, 01-Jul-2013 4:35pm CDT
NOT Current
Partly cloudy
Partly cloudy
 Wind from WNW
Wind: WNW 7 mph , 11 km/h
Temperature: 82°F , 28°C
Heat Index: 83°F , 28°C
Dew Point: 63°F , 17°C
Humidity: 51%
Barometer: 29.87 inHg , 1011.5 hPa
Clouds: Partly cloudy
Visibility: 10 miles , 16 km
Cloud details: Partly cloudy 4600 ft
Partly cloudy 6000 ft
Partly cloudy 7000 ft
2013/07/01 21:35 K3A1 012135Z AUTO 30006KT 10SM SCT046 SCT060 SCT070 28/17 A2987 RMK AO2 T02780172
KMSL - Muscle Shoal, Alabama, USA
Distance from station: WSW 65mi, 104km
Updated: Fri, 27-Nov-2020 3:23am CST
Mist, Clear
Mist, Clear
 Wind from calm
Wind: Calm
Temperature: 39°F , 4°C
Dew Point: 37°F , 3°C
Humidity: 93%
Barometer: 30.11 inHg , 1019.6 hPa
Summary: Mist
Clouds: Clear
Visibility: 2 1/2 miles , 4 km
2020/11/27 09:23 KMSL 270923Z AUTO 00000KT 2 1/2SM BR CLR 04/03 A3011 RMK AO2 VIS 1V5 T00390028
 
K8A0 - Albertville Muni, Alabama, USA
Distance from station: SSE 66mi, 106km
Updated: Fri, 27-Nov-2020 3:15am CST
Clear
Clear
 Wind from calm
Wind: Calm
Temperature: 41°F , 5°C
Dew Point: 41°F , 5°C
Humidity: 100%
Barometer: 30.11 inHg , 1019.6 hPa
Clouds: Clear
Visibility: 7 miles , 11 km
2020/11/27 09:15 K8A0 270915Z AUTO 00000KT 7SM CLR 05/05 A3011 RMK AO2
KBNA - Nashville, Tennessee, USA
Distance from station: N 67mi, 108km
Updated: Fri, 27-Nov-2020 3:06am CST
Fog, Overcast
Fog, Overcast
 Wind from calm
Wind: Calm
Temperature: 39°F , 4°C
Dew Point: 37°F , 3°C
Humidity: 93%
Barometer: 30.14 inHg , 1020.7 hPa
Summary: Fog
Clouds: Overcast
Visibility: 1/8 mile , 0.2 km
Cloud details: Overcast 200 ft
2020/11/27 09:06 KBNA 270906Z 00000KT 1/8SM R02L/1000V1400FT FG VV002 04/03 A3014 RMK AO2 SFC VIS 1/4 T00390028
 
K4A9 - Ft Payne/Isbell, Alabama, USA
Distance from station: SE 68mi, 109km
Updated: Fri, 27-Nov-2020 3:15am CST
Clear
Clear
 Wind from NE
Wind: NE 3 mph , 6 km/h
Temperature: 36°F , 2°C
Dew Point: 36°F , 2°C
Humidity: 100%
Barometer: 30.12 inHg , 1020 hPa
Clouds: Clear
Visibility: 10 miles , 16 km
2020/11/27 09:15 K4A9 270915Z AUTO 04003KT 10SM CLR 02/02 A3012 RMK AO2 T00210016